Butler, Oklahoma
Current Conditions -  °F | °C
As of 4:55 PM on Thursday 18 Dec 2014 (Local Time) from KCLK Reporting Station
Haze Haze  
Wind Chill: 36°   Ceiling: 1400
Heat Index: 41°   Visibility: 4mi
Dew Point: 37°   Wind: 7mph
Humidity: 87%   Direction: 40°NE
Pressure: 30.15"   Gusts: NA
Location:  35.64°N, 99.19°W
Report Text: KCLK 182255Z AUTO 04006KT 4SM BR SCT006 SCT009 OVC014 05/03 A3015 RMK AO2
Loading
Personal Weather Stations






























Interactive Weather Map New forecast layout! Learn more

10-Day Weather Forecast

Advertisements
Track Severe Weather on mobile